Terminal Aerodrome Forecast
Issued by NWS

Home | Current Version | Previous Version | Text Only | Print | Product List | Glossary On
Versions: 1 2 3 4 5 6 7 8 9 10 11
000
FTUS43 KEAX 261100
TAFSTJ
TAF
KSTJ 261136Z 2612/2712 18003KT P6SM SKC
     FM261900 22005KT P6SM BKN020
     FM262300 28005KT P6SM OVC012
     FM270200 34008KT 5SM -RASN BR OVC008
     FM270900 31008KT 6SM -SNRA BR OVC009=

USA.gov is the U.S. government's official web portal to all federal, state and local government web resources and services.